createdAt,value
2019-03-28T00:00:33.361Z,92.70
2019-03-28T00:03:02.141Z,92.70
2019-03-28T00:05:30.696Z,92.70
2019-03-28T00:07:59.202Z,92.70
2019-03-28T00:10:27.638Z,92.70
2019-03-28T00:12:56.252Z,92.90
2019-03-28T00:15:24.684Z,93.00
2019-03-28T00:17:54.498Z,93.20
2019-03-28T00:20:23.001Z,93.40
2019-03-28T00:22:54.042Z,93.50
2019-03-28T00:25:24.277Z,93.60
2019-03-28T00:27:52.746Z,93.60
2019-03-28T00:30:21.765Z,93.60
2019-03-28T00:32:50.215Z,93.50
2019-03-28T00:35:18.640Z,93.40
2019-03-28T00:37:47.112Z,93.50
2019-03-28T00:40:15.714Z,93.50
2019-03-28T00:42:44.191Z,93.70
2019-03-28T00:45:12.929Z,93.70
2019-03-28T00:47:41.484Z,93.80
2019-03-28T00:50:10.483Z,93.90
2019-03-28T00:52:38.986Z,94.00
2019-03-28T00:55:07.575Z,94.10
2019-03-28T00:57:36.103Z,94.20
2019-03-28T01:00:06.049Z,94.10
2019-03-28T01:02:34.503Z,94.20
2019-03-28T01:05:03.606Z,94.30
2019-03-28T01:07:32.030Z,94.20
2019-03-28T01:10:00.494Z,94.20
2019-03-28T01:12:28.935Z,94.30
2019-03-28T01:14:58.006Z,94.40
2019-03-28T01:17:26.678Z,94.40
2019-03-28T01:19:55.103Z,94.50
2019-03-28T01:22:23.569Z,94.40
2019-03-28T01:24:52.071Z,94.60
2019-03-28T01:27:20.536Z,94.90
2019-03-28T01:29:48.972Z,95.20
2019-03-28T01:32:17.410Z,95.50
2019-03-28T01:34:45.861Z,95.60
2019-03-28T01:37:14.382Z,95.80
2019-03-28T01:39:44.113Z,95.90
2019-03-28T01:42:12.565Z,96.10
2019-03-28T01:44:41.009Z,96.20
2019-03-28T01:47:09.441Z,95.90
2019-03-28T01:49:37.855Z,95.50
2019-03-28T01:52:06.293Z,95.00
2019-03-28T01:54:34.716Z,95.00
2019-03-28T01:57:10.913Z,95.10
2019-03-28T01:59:33.291Z,95.20
2019-03-28T02:02:01.751Z,95.40
2019-03-28T02:04:30.271Z,95.40
2019-03-28T02:06:59.166Z,95.50
2019-03-28T02:09:27.695Z,95.40
2019-03-28T02:11:56.138Z,95.40
2019-03-28T02:14:24.602Z,95.20
2019-03-28T02:16:53.034Z,95.20
2019-03-28T02:19:21.572Z,94.50
2019-03-28T02:21:50.099Z,94.20
2019-03-28T02:24:18.634Z,94.20
2019-03-28T02:26:47.091Z,94.40
2019-03-28T02:29:18.281Z,94.40
2019-03-28T02:31:49.134Z,93.90
2019-03-28T02:34:17.634Z,94.00
2019-03-28T02:36:46.063Z,94.30
2019-03-28T02:39:14.562Z,94.20
2019-03-28T02:41:43.003Z,94.30
2019-03-28T02:44:12.003Z,94.20
2019-03-28T02:46:40.737Z,94.10
2019-03-28T02:49:09.261Z,94.30
2019-03-28T02:51:37.805Z,94.50
2019-03-28T02:54:06.236Z,94.90
2019-03-28T02:56:34.771Z,95.10
2019-03-28T02:59:03.207Z,95.30
2019-03-28T03:01:32.680Z,95.40
2019-03-28T03:04:01.135Z,95.50
2019-03-28T03:06:29.652Z,95.50
2019-03-28T03:08:58.116Z,95.80
2019-03-28T03:11:26.628Z,96.20
2019-03-28T03:13:55.034Z,96.50
2019-03-28T03:16:23.510Z,96.80
2019-03-28T03:18:51.967Z,96.90
2019-03-28T03:21:20.478Z,96.60
2019-03-28T03:23:48.995Z,96.70
2019-03-28T03:26:17.462Z,96.90
2019-03-28T03:28:45.873Z,97.10
2019-03-28T03:31:20.635Z,97.20
2019-03-28T03:33:44.459Z,97.20
2019-03-28T03:36:12.899Z,97.20
2019-03-28T03:38:41.321Z,97.30
2019-03-28T03:41:09.813Z,97.10
2019-03-28T03:43:38.296Z,97.00
2019-03-28T03:46:06.751Z,96.90
2019-03-28T03:48:35.218Z,96.70
2019-03-28T03:51:03.709Z,96.50
2019-03-28T03:53:32.125Z,97.20
2019-03-28T03:56:00.659Z,97.50
2019-03-28T03:58:29.105Z,97.80
2019-03-28T04:00:57.589Z,97.70
2019-03-28T04:03:26.102Z,97.90
2019-03-28T04:05:54.518Z,97.90
2019-03-28T04:08:22.971Z,97.80
2019-03-28T04:10:51.508Z,97.80
2019-03-28T04:13:19.926Z,97.70
2019-03-28T04:15:48.426Z,97.40
2019-03-28T04:18:16.904Z,97.50
2019-03-28T04:20:45.384Z,97.40
2019-03-28T04:23:13.888Z,97.20
2019-03-28T04:25:42.343Z,97.10
2019-03-28T04:28:10.902Z,97.20
2019-03-28T04:30:39.355Z,97.20
2019-03-28T04:33:07.800Z,97.00
2019-03-28T04:35:36.220Z,96.80
2019-03-28T04:38:04.754Z,96.60
2019-03-28T04:40:34.409Z,96.60
2019-03-28T04:43:03.012Z,96.70
2019-03-28T04:45:31.477Z,96.50
2019-03-28T04:48:00.367Z,96.40
2019-03-28T04:50:29.059Z,96.40
2019-03-28T04:52:58.659Z,96.20
2019-03-28T04:55:27.087Z,95.90
2019-03-28T04:57:55.639Z,95.80
2019-03-28T05:00:24.286Z,95.70
2019-03-28T05:02:52.710Z,95.70
2019-03-28T05:05:21.146Z,95.70
2019-03-28T05:07:49.586Z,95.70
2019-03-28T05:10:18.028Z,96.10
2019-03-28T05:12:46.477Z,96.40
2019-03-28T05:15:15.324Z,96.10
2019-03-28T05:17:43.804Z,96.00
2019-03-28T05:20:13.395Z,95.80
2019-03-28T05:22:42.125Z,96.00
2019-03-28T05:25:10.632Z,94.90
2019-03-28T05:27:59.372Z,94.80
2019-03-28T05:30:28.210Z,94.50
2019-03-28T05:32:56.813Z,95.20
2019-03-28T05:35:25.311Z,95.20
2019-03-28T05:37:53.735Z,94.90
2019-03-28T05:40:22.960Z,94.50
2019-03-28T05:42:51.474Z,94.50
2019-03-28T05:45:19.933Z,94.80
2019-03-28T05:47:48.357Z,95.10
2019-03-28T05:50:16.897Z,95.30
2019-03-28T05:52:45.547Z,95.10
2019-03-28T05:55:13.979Z,95.30
2019-03-28T05:57:42.500Z,95.00
2019-03-28T06:00:11.498Z,94.30
2019-03-28T06:02:40.220Z,93.30
2019-03-28T06:05:08.854Z,92.80
2019-03-28T06:07:37.559Z,92.20
2019-03-28T06:10:07.915Z,91.10
2019-03-28T06:12:36.471Z,90.60
2019-03-28T06:15:06.844Z,90.20
2019-03-28T06:17:35.354Z,89.40
2019-03-28T06:20:28.643Z,87.90
2019-03-28T06:22:57.158Z,86.90
2019-03-28T06:25:25.646Z,85.30
2019-03-28T06:27:54.112Z,84.60
2019-03-28T06:30:22.633Z,84.10
2019-03-28T06:32:51.225Z,83.70
2019-03-28T06:35:21.932Z,82.80
2019-03-28T06:37:51.437Z,81.80
2019-03-28T06:40:20.187Z,82.10
2019-03-28T06:42:48.638Z,81.90
2019-03-28T06:45:17.122Z,81.10
2019-03-28T06:47:45.574Z,81.20
2019-03-28T06:50:14.388Z,81.00
2019-03-28T06:52:42.871Z,80.30
2019-03-28T06:55:11.373Z,79.80
2019-03-28T06:57:39.794Z,79.00
2019-03-28T07:00:11.826Z,78.90
2019-03-28T07:02:40.390Z,78.10
2019-03-28T07:05:09.164Z,78.40
2019-03-28T07:07:37.599Z,78.20
2019-03-28T07:10:07.074Z,78.60
2019-03-28T07:12:35.624Z,79.00
2019-03-28T07:15:06.370Z,78.20
2019-03-28T07:17:54.190Z,77.70
2019-03-28T07:20:22.607Z,78.20
2019-03-28T07:22:51.054Z,77.60
2019-03-28T07:25:19.472Z,76.60
2019-03-28T07:27:47.916Z,75.90
2019-03-28T07:30:19.415Z,75.90
2019-03-28T07:32:48.079Z,75.90
2019-03-28T07:35:16.510Z,75.40
2019-03-28T07:37:44.969Z,75.20
2019-03-28T07:40:34.299Z,74.60
2019-03-28T07:43:02.771Z,74.80
2019-03-28T07:45:34.179Z,74.50
2019-03-28T07:48:20.707Z,74.90
2019-03-28T07:50:49.178Z,74.40
2019-03-28T07:53:19.850Z,72.70
2019-03-28T07:55:47.899Z,73.30
2019-03-28T07:58:16.377Z,73.90
2019-03-28T08:00:44.907Z,73.70
2019-03-28T08:03:13.442Z,72.70
2019-03-28T08:05:41.912Z,71.10
2019-03-28T08:08:10.343Z,69.90
2019-03-28T08:10:38.810Z,70.30
2019-03-28T08:13:07.315Z,70.60
2019-03-28T08:15:35.759Z,68.90
2019-03-28T08:18:04.281Z,69.20
2019-03-28T08:20:33.326Z,68.70
2019-03-28T08:23:02.028Z,69.30
2019-03-28T08:25:30.466Z,69.20
2019-03-28T08:27:58.888Z,68.90
2019-03-28T08:30:48.235Z,68.60
2019-03-28T08:33:16.663Z,69.00
2019-03-28T08:35:45.079Z,68.70
2019-03-28T08:38:14.074Z,68.30
2019-03-28T08:40:43.548Z,68.70
2019-03-28T08:43:15.849Z,69.40
2019-03-28T08:45:44.539Z,68.80
2019-03-28T08:48:13.157Z,68.40
2019-03-28T08:50:41.647Z,68.10
2019-03-28T08:53:10.487Z,67.70
2019-03-28T08:55:39.466Z,68.50
2019-03-28T08:58:07.933Z,67.00
2019-03-28T09:00:50.910Z,65.70
2019-03-28T09:03:06.568Z,64.10
2019-03-28T09:05:35.033Z,62.90
2019-03-28T09:08:03.747Z,62.60
2019-03-28T09:10:32.194Z,61.60
2019-03-28T09:13:00.699Z,61.70
2019-03-28T09:15:42.674Z,61.80
2019-03-28T09:18:00.376Z,61.40
2019-03-28T09:20:29.018Z,63.30
2019-03-28T09:22:57.683Z,64.10
2019-03-28T09:25:26.106Z,64.30
2019-03-28T09:27:54.658Z,64.40
2019-03-28T09:30:48.714Z,65.30
2019-03-28T09:33:10.949Z,65.20
2019-03-28T09:35:39.483Z,65.70
2019-03-28T09:38:08.139Z,65.60
2019-03-28T09:40:36.567Z,65.70
2019-03-28T09:43:05.089Z,65.70
2019-03-28T09:45:33.589Z,65.20
2019-03-28T09:48:02.106Z,65.00
2019-03-28T09:50:30.548Z,65.30
2019-03-28T09:52:59.022Z,66.10
2019-03-28T09:55:27.478Z,65.60
2019-03-28T09:57:55.931Z,65.40
2019-03-28T10:00:24.637Z,65.10
2019-03-28T10:02:53.131Z,65.70
2019-03-28T10:05:21.618Z,65.90
2019-03-28T10:08:09.665Z,65.80
2019-03-28T10:10:38.226Z,65.20
2019-03-28T10:13:06.680Z,66.20
2019-03-28T10:15:36.918Z,66.50
2019-03-28T10:18:05.409Z,66.90
2019-03-28T10:20:33.910Z,67.20
2019-03-28T10:23:02.439Z,67.10
2019-03-28T10:25:30.951Z,67.30
2019-03-28T10:27:59.417Z,67.60
2019-03-28T10:30:41.554Z,67.30
2019-03-28T10:33:10.101Z,66.90
2019-03-28T10:35:38.610Z,66.30
2019-03-28T10:38:07.186Z,65.50
2019-03-28T10:40:36.367Z,65.70
2019-03-28T10:43:05.069Z,65.70
2019-03-28T10:45:33.868Z,65.80
2019-03-28T10:48:02.560Z,66.80
2019-03-28T10:50:40.759Z,66.20
2019-03-28T10:53:01.333Z,65.60
2019-03-28T10:55:29.921Z,65.70
2019-03-28T10:57:58.578Z,65.50
2019-03-28T11:00:27.512Z,65.30
2019-03-28T11:02:56.098Z,64.30
2019-03-28T11:05:24.686Z,63.70
2019-03-28T11:07:54.682Z,64.10
2019-03-28T11:10:24.713Z,64.00
2019-03-28T11:12:53.211Z,63.90
2019-03-28T11:15:21.659Z,64.50
2019-03-28T11:17:50.158Z,64.70
2019-03-28T11:20:21.498Z,64.20
2019-03-28T11:22:49.992Z,63.80
2019-03-28T11:25:18.544Z,63.40
2019-03-28T11:27:47.079Z,63.70
2019-03-28T11:30:18.175Z,64.40
2019-03-28T11:32:46.018Z,64.30
2019-03-28T11:35:14.667Z,63.70
2019-03-28T11:40:12.990Z,67.90
2019-03-28T11:43:04.058Z,68.40
2019-03-28T11:45:32.618Z,61.30
2019-03-28T11:48:01.156Z,60.50
2019-03-28T11:50:29.719Z,61.30
2019-03-28T11:52:58.230Z,61.90
2019-03-28T11:55:26.780Z,61.60
2019-03-28T11:57:56.588Z,62.00
2019-03-28T12:00:25.254Z,62.60
2019-03-28T12:02:53.749Z,61.90
2019-03-28T12:05:22.254Z,61.20
2019-03-28T12:07:50.772Z,60.60
2019-03-28T12:10:19.490Z,60.40
2019-03-28T12:12:48.104Z,60.70
2019-03-28T12:15:16.765Z,61.30
2019-03-28T12:17:45.342Z,61.90
2019-03-28T12:20:13.878Z,60.70
2019-03-28T12:22:42.400Z,60.40
2019-03-28T12:25:11.698Z,59.50
2019-03-28T12:27:40.344Z,59.40
2019-03-28T12:30:11.168Z,59.50
2019-03-28T12:32:39.666Z,58.90
2019-03-28T12:35:08.896Z,57.60
2019-03-28T12:37:37.354Z,56.80
2019-03-28T12:40:10.346Z,57.50
2019-03-28T12:42:47.382Z,57.40
2019-03-28T12:45:16.262Z,57.20
2019-03-28T12:47:44.831Z,57.40
2019-03-28T12:50:14.422Z,57.40
2019-03-28T12:52:42.952Z,57.00
2019-03-28T12:55:11.802Z,56.50
2019-03-28T12:57:40.230Z,56.40
2019-03-28T13:00:10.334Z,55.80
2019-03-28T13:02:38.942Z,55.30
2019-03-28T13:05:10.726Z,55.30
2019-03-28T13:07:39.245Z,55.80
2019-03-28T13:10:10.268Z,55.60
2019-03-28T13:12:38.831Z,56.00
2019-03-28T13:15:08.174Z,55.90
2019-03-28T13:17:36.624Z,56.70
2019-03-28T13:20:09.948Z,56.80
2019-03-28T13:22:41.620Z,57.50
2019-03-28T13:25:10.800Z,57.50
2019-03-28T13:27:39.207Z,57.90
2019-03-28T13:30:20.417Z,58.00
2019-03-28T13:32:49.012Z,58.20
2019-03-28T13:35:17.472Z,58.30
2019-03-28T13:37:45.923Z,57.50
2019-03-28T13:40:14.912Z,56.10
2019-03-28T13:42:43.352Z,54.60
2019-03-28T13:45:12.462Z,54.80
2019-03-28T13:47:40.919Z,55.60
2019-03-28T13:50:10.993Z,55.10
2019-03-28T13:52:39.626Z,55.50
2019-03-28T13:55:08.183Z,56.10
2019-03-28T13:57:36.653Z,55.50
2019-03-28T14:00:11.978Z,55.30
2019-03-28T14:02:40.517Z,55.00
2019-03-28T14:05:09.321Z,54.70
2019-03-28T14:07:37.778Z,55.20
2019-03-28T14:10:07.544Z,55.70
2019-03-28T14:12:36.061Z,56.00
2019-03-28T14:15:05.938Z,56.60
2019-03-28T14:17:35.114Z,57.30
2019-03-28T14:20:06.737Z,57.50
2019-03-28T14:22:35.501Z,57.90
2019-03-28T14:25:05.947Z,58.20
2019-03-28T14:27:34.467Z,57.90
2019-03-28T14:30:03.298Z,57.50
2019-03-28T14:32:33.171Z,56.80
2019-03-28T14:35:01.777Z,56.50
2019-03-28T14:37:30.564Z,56.60
2019-03-28T14:39:59.149Z,54.80
2019-03-28T14:42:27.764Z,53.90
2019-03-28T14:44:59.281Z,53.30
2019-03-28T14:47:27.711Z,53.20
2019-03-28T14:49:56.261Z,54.20
2019-03-28T14:52:24.763Z,53.90
2019-03-28T14:54:53.304Z,54.20
2019-03-28T14:57:21.891Z,54.30
2019-03-28T14:59:50.517Z,54.50
2019-03-28T15:02:19.052Z,53.80
2019-03-28T15:04:47.634Z,54.30
2019-03-28T15:07:16.060Z,55.10
2019-03-28T15:09:44.581Z,55.40
2019-03-28T15:12:13.226Z,55.30
2019-03-28T15:14:41.681Z,55.80
2019-03-28T15:17:10.108Z,55.40
2019-03-28T15:19:38.545Z,55.20
2019-03-28T15:22:07.066Z,55.40
2019-03-28T15:24:35.524Z,55.40
2019-03-28T15:27:04.322Z,55.50
2019-03-28T15:29:32.926Z,56.20
2019-03-28T15:32:01.398Z,56.00
2019-03-28T15:34:30.406Z,56.20
2019-03-28T15:36:58.973Z,56.00
2019-03-28T15:39:27.413Z,56.00
2019-03-28T15:41:55.992Z,55.90
2019-03-28T15:44:24.480Z,56.10
2019-03-28T15:46:52.926Z,56.30
2019-03-28T15:49:21.386Z,56.50
2019-03-28T15:51:49.897Z,56.90
2019-03-28T15:54:18.427Z,57.50
2019-03-28T15:56:46.886Z,57.50
2019-03-28T15:59:15.349Z,57.50
2019-03-28T16:01:43.864Z,57.70
2019-03-28T16:04:12.503Z,57.80
2019-03-28T16:06:41.546Z,58.10
2019-03-28T16:09:10.414Z,58.30
2019-03-28T16:11:39.066Z,58.40
2019-03-28T16:14:07.644Z,58.70
2019-03-28T16:16:36.373Z,58.90
2019-03-28T16:19:05.747Z,59.00
2019-03-28T16:21:34.623Z,59.10
2019-03-28T16:24:03.149Z,59.20
2019-03-28T16:26:31.559Z,59.10
2019-03-28T16:29:00.130Z,59.40
2019-03-28T16:31:28.611Z,59.30
2019-03-28T16:34:06.809Z,59.20
2019-03-28T16:36:27.344Z,59.20
2019-03-28T16:38:56.091Z,59.60
2019-03-28T16:41:24.723Z,59.80
2019-03-28T16:43:53.175Z,60.00
2019-03-28T16:46:21.684Z,60.10
2019-03-28T16:48:50.119Z,60.30
2019-03-28T16:51:18.856Z,60.40
2019-03-28T16:53:47.300Z,60.40
2019-03-28T16:56:15.866Z,60.30
2019-03-28T16:58:44.297Z,60.50
2019-03-28T17:01:12.776Z,60.50
2019-03-28T17:03:41.363Z,60.60
2019-03-28T17:06:10.279Z,60.80
2019-03-28T17:08:40.639Z,61.10
2019-03-28T17:11:12.029Z,61.10
2019-03-28T17:13:39.535Z,61.20
2019-03-28T17:16:08.014Z,61.40
2019-03-28T17:18:36.517Z,61.50
2019-03-28T17:21:05.097Z,61.70
2019-03-28T17:23:34.501Z,62.10
2019-03-28T17:26:03.115Z,62.70
2019-03-28T17:28:31.734Z,62.60
2019-03-28T17:31:00.298Z,62.60
2019-03-28T17:33:28.871Z,63.00
2019-03-28T17:35:57.484Z,62.90
2019-03-28T17:38:26.047Z,63.10
2019-03-28T17:40:54.618Z,63.40
2019-03-28T17:43:23.956Z,63.40
2019-03-28T17:45:52.476Z,63.60
2019-03-28T17:48:20.940Z,64.00
2019-03-28T17:50:49.394Z,64.30
2019-03-28T17:53:18.078Z,64.30
2019-03-28T17:55:46.694Z,64.40
2019-03-28T17:58:15.156Z,64.80
2019-03-28T18:00:45.446Z,65.10
2019-03-28T18:03:14.679Z,65.30
2019-03-28T18:05:43.201Z,65.30
2019-03-28T18:08:11.626Z,65.40
2019-03-28T18:10:40.195Z,65.50
2019-03-28T18:13:08.691Z,66.00
2019-03-28T18:15:37.218Z,66.10
2019-03-28T18:18:05.807Z,65.70
2019-03-28T18:20:34.452Z,66.00
2019-03-28T18:23:02.929Z,66.20
2019-03-28T18:25:31.417Z,66.30
2019-03-28T18:27:59.942Z,66.70
2019-03-28T18:30:29.275Z,66.80
2019-03-28T18:32:57.736Z,66.80
2019-03-28T18:35:26.331Z,67.10
2019-03-28T18:37:54.826Z,67.10
2019-03-28T18:40:23.380Z,67.30
2019-03-28T18:42:51.813Z,67.60
2019-03-28T18:45:20.415Z,67.80
2019-03-28T18:47:48.865Z,67.90
2019-03-28T18:50:17.533Z,68.10
2019-03-28T18:52:46.003Z,69.00
2019-03-28T18:55:14.898Z,69.90
2019-03-28T18:57:43.389Z,70.00
2019-03-28T19:00:12.193Z,69.60
2019-03-28T19:02:40.662Z,70.10
2019-03-28T19:05:19.560Z,70.20
2019-03-28T19:07:39.338Z,70.70
2019-03-28T19:10:09.274Z,70.50
2019-03-28T19:12:37.916Z,70.80
2019-03-28T19:15:07.961Z,70.20
2019-03-28T19:17:36.893Z,69.50
2019-03-28T19:20:08.469Z,69.40
2019-03-28T19:22:38.412Z,69.80
2019-03-28T19:25:09.348Z,70.30
2019-03-28T19:27:38.460Z,70.50
2019-03-28T19:30:07.825Z,71.00
2019-03-28T19:32:36.439Z,71.10
2019-03-28T19:35:07.414Z,70.50
2019-03-28T19:37:37.129Z,70.50
2019-03-28T19:40:08.651Z,70.60
2019-03-28T19:42:37.618Z,70.90
2019-03-28T19:45:06.965Z,71.40
2019-03-28T19:47:35.453Z,71.80
2019-03-28T19:50:06.238Z,72.10
2019-03-28T19:52:34.685Z,72.70
2019-03-28T19:55:03.292Z,73.30
2019-03-28T19:57:31.764Z,73.90
2019-03-28T20:00:00.378Z,74.50
2019-03-28T20:02:29.025Z,75.40
2019-03-28T20:04:57.599Z,76.30
2019-03-28T20:07:26.022Z,76.80
2019-03-28T20:09:57.326Z,77.20
2019-03-28T20:12:25.507Z,77.50
2019-03-28T20:14:54.076Z,78.80
2019-03-28T20:17:22.733Z,78.80
2019-03-28T20:19:51.255Z,79.70
2019-03-28T20:22:19.768Z,80.70
2019-03-28T20:24:48.225Z,81.50
2019-03-28T20:27:16.690Z,82.30
2019-03-28T20:29:45.224Z,82.90
2019-03-28T20:32:13.810Z,83.60
2019-03-28T20:34:42.280Z,84.10
2019-03-28T20:37:11.652Z,84.60
2019-03-28T20:39:40.530Z,85.20
2019-03-28T20:42:10.499Z,85.70
2019-03-28T20:44:39.008Z,86.30
2019-03-28T20:47:08.415Z,87.00
2019-03-28T20:49:37.104Z,87.80
2019-03-28T20:52:05.612Z,88.20
2019-03-28T20:54:35.318Z,88.50
2019-03-28T20:57:03.875Z,88.90
2019-03-28T20:59:32.431Z,89.70
2019-03-28T21:02:01.031Z,90.20
2019-03-28T21:04:31.630Z,90.70
2019-03-28T21:06:59.745Z,90.60
2019-03-28T21:09:28.271Z,90.50
2019-03-28T21:11:56.709Z,90.70
2019-03-28T21:14:25.209Z,90.50
2019-03-28T21:16:53.778Z,90.30
2019-03-28T21:19:22.271Z,90.50
2019-03-28T21:21:50.751Z,90.40
2019-03-28T21:24:19.228Z,90.60
2019-03-28T21:26:47.733Z,90.60
2019-03-28T21:29:17.112Z,90.70
2019-03-28T21:31:50.210Z,90.80
2019-03-28T21:34:15.878Z,91.10
2019-03-28T21:36:44.503Z,91.40
2019-03-28T21:39:13.085Z,91.40
2019-03-28T21:41:41.502Z,91.50
2019-03-28T21:44:10.004Z,91.50
2019-03-28T21:46:38.599Z,91.60
2019-03-28T21:49:07.046Z,91.60
2019-03-28T21:51:36.230Z,91.70
2019-03-28T21:54:05.275Z,91.80
2019-03-28T21:56:33.892Z,91.50
2019-03-28T21:59:02.372Z,91.70
2019-03-28T22:01:30.787Z,91.20
2019-03-28T22:03:59.227Z,91.10
2019-03-28T22:06:27.687Z,91.30
2019-03-28T22:08:56.115Z,91.40
2019-03-28T22:11:24.581Z,91.90
2019-03-28T22:13:53.061Z,91.40
2019-03-28T22:16:40.924Z,91.30
2019-03-28T22:19:09.382Z,91.50
2019-03-28T22:21:37.833Z,90.90
2019-03-28T22:24:06.312Z,91.00
2019-03-28T22:26:34.779Z,91.10
2019-03-28T22:29:03.195Z,91.10
2019-03-28T22:31:31.688Z,90.90
2019-03-28T22:34:00.146Z,91.30
2019-03-28T22:36:28.621Z,91.70
2019-03-28T22:38:57.056Z,92.00
2019-03-28T22:41:25.509Z,92.30
2019-03-28T22:43:53.967Z,92.50
2019-03-28T22:46:22.421Z,92.90
2019-03-28T22:48:50.940Z,92.90
2019-03-28T22:51:19.508Z,92.90
2019-03-28T22:53:47.909Z,92.90
2019-03-28T22:56:16.359Z,93.20
2019-03-28T22:58:44.883Z,93.30
2019-03-28T23:01:13.448Z,93.40
2019-03-28T23:03:44.582Z,93.70
2019-03-28T23:06:13.047Z,93.40
2019-03-28T23:08:41.653Z,93.40
2019-03-28T23:11:10.225Z,93.50
2019-03-28T23:13:38.718Z,93.70
2019-03-28T23:16:07.179Z,93.70
2019-03-28T23:18:35.657Z,93.70
2019-03-28T23:21:04.093Z,93.90
2019-03-28T23:23:32.514Z,94.20
2019-03-28T23:26:01.009Z,94.00
2019-03-28T23:28:29.509Z,94.20
2019-03-28T23:30:58.086Z,94.40
2019-03-28T23:33:26.547Z,94.70
2019-03-28T23:35:55.053Z,95.00
2019-03-28T23:38:23.587Z,95.00
2019-03-28T23:40:52.042Z,95.00
2019-03-28T23:43:20.500Z,95.10
2019-03-28T23:45:49.040Z,95.60
2019-03-28T23:48:17.503Z,95.60
2019-03-28T23:50:45.931Z,95.60
2019-03-28T23:53:14.393Z,95.40
2019-03-28T23:55:42.911Z,95.30
2019-03-28T23:58:11.411Z,95.70
